Time;durP1;ratioP1;P1;durP2;ratioP2;P2;SDS_P1;SDS_P2;PMS_P1;PMS_P2;Temp;Humidity;BMP_temperature;BMP_pressure;BME280_temperature;BME280_humidity;BME280_pressure;Samples;Min_cycle;Max_cycle;Signal;HPM_P1;HPM_P2
2023/09/20 00:00:40;;;;;;;6.05;3.85;;;;;;;17.61;100.00;64824.31;5050498;28;20188;-51
2023/09/20 00:03:06;;;;;;;6.38;4.40;;;;;;;17.63;100.00;64823.97;5050830;28;20247;-51
2023/09/20 00:05:32;;;;;;;4.13;3.72;;;;;;;17.63;100.00;64821.41;5050554;28;20232;-51
2023/09/20 00:07:58;;;;;;;4.72;3.97;;;;;;;17.57;100.00;64817.34;5032997;28;20206;-50
2023/09/20 00:10:24;;;;;;;4.90;4.00;;;;;;;17.63;100.00;64823.97;5050570;28;20766;-51
2023/09/20 00:12:50;;;;;;;4.50;4.10;;;;;;;17.66;100.00;64829.81;5050610;28;20610;-51
2023/09/20 00:15:16;;;;;;;4.93;4.43;;;;;;;17.59;100.00;64822.63;5050419;28;20276;-50
2023/09/20 00:17:43;;;;;;;5.95;4.53;;;;;;;17.49;100.00;64811.09;5050429;28;20213;-52
2023/09/20 00:20:12;;;;;;;5.35;4.47;;;;;;;17.50;100.00;64807.09;5050366;28;20258;-50
2023/09/20 00:22:43;;;;;;;7.53;5.05;;;;;;;17.57;100.00;64814.81;5050148;28;20711;-51
2023/09/20 00:25:12;;;;;;;6.38;4.40;;;;;;;17.43;100.00;64804.44;5049440;28;20209;-53
2023/09/20 00:27:45;;;;;;;6.25;4.72;;;;;;;17.20;100.00;64779.09;5050374;28;20229;-51
2023/09/20 00:30:14;;;;;;;6.13;5.53;;;;;;;17.00;100.00;64757.63;5050468;28;20276;-52
2023/09/20 00:32:44;;;;;;;8.90;5.43;;;;;;;17.02;100.00;64757.28;5032501;28;20205;-52
2023/09/20 00:35:11;;;;;;;6.70;4.97;;;;;;;17.16;100.00;64774.69;5050217;28;20322;-52
2023/09/20 00:37:41;;;;;;;8.25;5.38;;;;;;;17.19;100.00;64775.47;5050149;28;20776;-52
2023/09/20 00:40:15;;;;;;;6.57;5.30;;;;;;;17.18;100.00;64776.91;5050153;28;20205;-55
2023/09/20 00:42:41;;;;;;;7.07;5.00;;;;;;;17.23;100.00;64782.41;5032329;28;20300;-51
2023/09/20 00:45:07;;;;;;;7.05;4.82;;;;;;;17.19;100.00;64776.00;5049986;28;20224;-52
2023/09/20 00:47:33;;;;;;;6.68;4.57;;;;;;;17.27;100.00;64786.81;5049747;28;20220;-51
2023/09/20 00:50:01;;;;;;;5.35;4.85;;;;;;;17.32;100.00;64789.78;5032570;28;20288;-51
2023/09/20 00:52:28;;;;;;;5.05;4.53;;;;;;;17.39;100.00;64797.50;5049442;28;20266;-51
2023/09/20 00:54:57;;;;;;;7.57;4.63;;;;;;;17.36;100.00;64794.19;5049085;28;20206;-54
2023/09/20 00:57:25;;;;;;;5.88;4.97;;;;;;;17.31;100.00;64789.22;5031435;28;20221;-55
2023/09/20 00:59:51;;;;;;;5.95;4.78;;;;;;;17.41;100.00;64800.22;5049007;28;20198;-51
2023/09/20 01:02:18;;;;;;;5.63;5.05;;;;;;;17.39;100.00;64798.03;5049466;28;20229;-51
2023/09/20 01:04:45;;;;;;;7.38;4.93;;;;;;;17.32;100.00;64792.88;5048717;28;20225;-50
2023/09/20 01:07:12;;;;;;;7.75;4.72;;;;;;;17.29;100.00;64786.47;5049778;28;20209;-51
2023/09/20 01:09:37;;;;;;;5.68;4.95;;;;;;;17.24;100.00;64780.97;5049768;28;20205;-51
2023/09/20 01:12:05;;;;;;;7.60;4.72;;;;;;;17.27;100.00;64787.34;5050129;28;20632;-52
2023/09/20 01:14:31;;;;;;;4.97;4.38;;;;;;;17.25;100.00;64785.16;5049871;28;20226;-51
2023/09/20 01:16:57;;;;;;;5.22;4.72;;;;;;;17.28;100.00;64787.91;5049948;28;20252;-53
2023/09/20 01:19:22;;;;;;;6.25;4.95;;;;;;;17.31;100.00;64791.22;5049512;28;20221;-52
2023/09/20 01:21:48;;;;;;;5.10;4.50;;;;;;;17.57;100.00;64817.34;5049708;28;20244;-50
2023/09/20 01:24:14;;;;;;;5.05;4.35;;;;;;;17.35;100.00;64793.63;5049622;28;20259;-50
2023/09/20 01:26:44;;;;;;;5.88;4.93;;;;;;;17.35;100.00;64790.53;5031995;28;20220;-51
2023/09/20 01:29:12;;;;;;;6.70;5.50;;;;;;;17.42;100.00;64801.34;5049480;28;20194;-51
2023/09/20 01:31:37;;;;;;;11.30;6.15;;;;;;;17.35;100.00;64795.63;5049395;28;20221;-52
2023/09/20 01:34:03;;;;;;;9.15;5.88;;;;;;;17.25;100.00;64784.63;5049474;28;20190;-51
2023/09/20 01:36:29;;;;;;;6.60;5.80;;;;;;;17.28;100.00;64788.47;5052649;28;20263;-51
2023/09/20 01:38:54;;;;;;;6.13;5.53;;;;;;;17.32;100.00;64792.31;5053009;28;20672;-51
2023/09/20 01:41:20;;;;;;;8.07;5.93;;;;;;;17.28;100.00;64788.47;5052634;28;20684;-50
2023/09/20 01:43:46;;;;;;;9.98;6.85;;;;;;;17.02;100.00;64759.28;5052636;28;20208;-50
2023/09/20 01:46:11;;;;;;;7.65;6.38;;;;;;;16.78;100.00;64728.84;5052658;28;20209;-51
2023/09/20 01:48:37;;;;;;;10.75;9.50;;;;;;;16.84;100.00;64739.44;5034652;28;20197;-51
2023/09/20 01:51:03;;;;;;;12.23;7.80;;;;;;;16.99;100.00;64755.97;5034788;28;20297;-53
2023/09/20 01:53:29;;;;;;;10.27;8.88;;;;;;;17.01;100.00;64758.19;5052826;28;20284;-53
2023/09/20 01:55:57;;;;;;;10.32;8.65;;;;;;;16.82;100.00;64734.69;5052655;28;20214;-50
2023/09/20 01:58:23;;;;;;;11.07;8.38;;;;;;;16.76;100.00;64731.75;5052404;28;20197;-51
2023/09/20 02:00:50;;;;;;;10.32;8.57;;;;;;;16.83;100.00;64736.34;5052656;28;20209;-50
2023/09/20 02:03:19;;;;;;;10.25;8.70;;;;;;;17.10;100.00;64763.00;5052405;28;20710;-51
2023/09/20 02:05:48;;;;;;;9.35;8.27;;;;;;;17.02;100.00;64756.72;5051077;28;20358;-49
2023/09/20 02:08:15;;;;;;;11.77;8.77;;;;;;;16.98;100.00;64754.88;5052402;28;20224;-51
2023/09/20 02:10:41;;;;;;;9.93;8.45;;;;;;;17.00;100.00;64754.53;5034315;28;20731;-51
2023/09/20 02:13:08;;;;;;;10.82;8.68;;;;;;;16.97;100.00;64749.22;5052158;28;20267;-51
2023/09/20 02:15:34;;;;;;;11.18;8.50;;;;;;;17.09;100.00;64764.44;5052125;28;20201;-51
2023/09/20 02:18:05;;;;;;;10.60;8.95;;;;;;;16.99;100.00;64753.97;5052238;28;20205;-52
2023/09/20 02:20:36;;;;;;;11.90;8.95;;;;;;;17.01;100.00;64755.63;5052172;28;20767;-50
2023/09/20 02:23:03;;;;;;;10.43;9.10;;;;;;;16.84;100.00;64737.44;5034112;28;20236;-50
2023/09/20 02:25:29;;;;;;;12.25;9.25;;;;;;;16.93;100.00;64749.91;5052048;28;20237;-51
2023/09/20 02:28:03;;;;;;;9.50;8.45;;;;;;;16.88;100.00;64741.31;5052021;28;20209;-51
2023/09/20 02:30:35;;;;;;;12.32;9.18;;;;;;;16.82;100.00;64735.25;5052013;28;20204;-51
2023/09/20 02:33:05;;;;;;;14.13;9.45;;;;;;;16.86;100.00;64741.66;5052104;28;20229;-51
2023/09/20 02:35:32;;;;;;;12.35;9.75;;;;;;;16.95;100.00;64749.03;5051792;28;20779;-52
2023/09/20 02:38:05;;;;;;;16.05;10.63;;;;;;;16.83;100.00;64735.81;5051708;28;20213;-51
2023/09/20 02:40:30;;;;;;;22.58;13.15;;;;;;;16.70;100.00;64722.56;5051691;28;20200;-50
2023/09/20 02:42:58;;;;;;;18.20;13.05;;;;;;;16.59;100.00;64710.47;5033932;28;20249;-51
2023/09/20 02:45:25;;;;;;;16.13;10.95;;;;;;;16.85;100.00;64738.53;5051806;28;20205;-51
2023/09/20 02:47:51;;;;;;;18.77;13.93;;;;;;;16.71;100.00;64726.22;5050863;28;20213;-51
2023/09/20 02:50:25;;;;;;;21.30;14.00;;;;;;;16.57;100.00;64710.25;5051742;28;20193;-51
2023/09/20 02:52:52;;;;;;;22.90;15.55;;;;;;;16.66;100.00;64717.63;5051691;28;20301;-50
2023/09/20 02:55:21;;;;;;;22.60;15.13;;;;;;;16.53;100.00;64706.41;5051518;28;20201;-51
2023/09/20 02:57:52;;;;;;;17.30;13.52;;;;;;;16.59;100.00;64713.00;5051494;28;20305;-51
2023/09/20 03:00:27;;;;;;;20.83;14.65;;;;;;;16.65;100.00;64717.06;5051606;28;20221;-50
2023/09/20 03:02:56;;;;;;;20.42;14.70;;;;;;;16.55;100.00;64708.63;5051389;28;20213;-51
2023/09/20 03:05:25;;;;;;;22.48;14.45;;;;;;;16.81;100.00;64733.59;5051301;28;20275;-51
2023/09/20 03:07:53;;;;;;;23.67;14.40;;;;;;;16.67;100.00;64718.72;5033342;28;20218;-51
2023/09/20 03:10:21;;;;;;;23.75;13.75;;;;;;;16.68;100.00;64722.38;5033231;28;20201;-50
2023/09/20 03:12:51;;;;;;;20.25;12.93;;;;;;;16.61;100.00;64714.66;5051499;28;20209;-51
2023/09/20 03:15:22;;;;;;;21.88;13.55;;;;;;;16.58;100.00;64711.91;5051251;28;20208;-51
2023/09/20 03:17:49;;;;;;;17.08;12.13;;;;;;;16.55;100.00;64705.50;5033561;28;20221;-51
2023/09/20 03:20:32;;;;;;;13.98;11.18;;;;;;;16.53;100.00;64703.31;5051048;28;20299;-51
2023/09/20 03:23:04;;;;;;;18.02;11.38;;;;;;;16.78;100.00;64733.94;5051534;28;20205;-52
2023/09/20 03:25:36;;;;;;;13.75;10.30;;;;;;;16.86;100.00;64742.19;5051381;28;20271;-51
2023/09/20 03:28:03;;;;;;;15.57;10.95;;;;;;;16.81;100.00;64736.69;5051394;28;20691;-52
2023/09/20 03:30:31;;;;;;;17.60;11.35;;;;;;;16.79;100.00;64732.50;5050950;28;20251;-52
2023/09/20 03:32:57;;;;;;;16.50;10.75;;;;;;;16.73;100.00;64728.44;5033203;28;20256;-50
2023/09/20 03:35:23;;;;;;;18.00;11.75;;;;;;;16.45;100.00;64697.56;5033259;28;20201;-52
2023/09/20 03:37:49;;;;;;;20.05;11.13;;;;;;;16.49;100.00;64702.00;5051030;28;20217;-52
2023/09/20 03:40:19;;;;;;;19.55;12.32;;;;;;;16.44;100.00;64696.47;5050800;28;20237;-51
2023/09/20 03:42:46;;;;;;;18.80;12.00;;;;;;;16.44;100.00;64688.84;5050889;28;20213;-50
2023/09/20 03:45:15;;;;;;;17.52;11.70;;;;;;;16.49;100.00;64699.47;5050744;28;20240;-51
2023/09/20 03:47:45;;;;;;;16.30;11.48;;;;;;;16.41;100.00;64692.63;5050653;28;20335;-51
2023/09/20 03:50:12;;;;;;;18.02;11.93;;;;;;;16.27;100.00;64677.75;5050763;28;20176;-50
2023/09/20 03:52:38;;;;;;;15.85;12.10;;;;;;;16.36;100.00;64685.13;5050931;28;20237;-52
2023/09/20 03:55:05;;;;;;;19.92;12.32;;;;;;;16.42;100.00;64689.19;5050882;28;20225;-53
2023/09/20 03:57:31;;;;;;;19.80;11.90;;;;;;;16.37;100.00;64688.78;5050662;28;20244;-51
2023/09/20 03:59:59;;;;;;;20.98;11.40;;;;;;;16.29;100.00;64676.88;5050776;28;20656;-51
2023/09/20 04:02:28;;;;;;;16.50;11.57;;;;;;;16.38;100.00;64689.31;5050393;28;20227;-53
2023/09/20 04:04:55;;;;;;;15.93;11.38;;;;;;;16.34;100.00;64682.91;5050470;28;20224;-52
2023/09/20 04:07:26;;;;;;;14.95;10.60;;;;;;;16.26;100.00;64673.56;5050337;28;20672;-51
2023/09/20 04:09:52;;;;;;;16.00;11.27;;;;;;;16.35;100.00;64686.56;5050638;28;20193;-57
2023/09/20 04:12:18;;;;;;;15.15;10.90;;;;;;;16.26;100.00;64676.66;5050822;28;20217;-51
2023/09/20 04:14:43;;;;;;;14.43;10.68;;;;;;;16.41;100.00;64693.19;5050407;28;20246;-51
2023/09/20 04:17:09;;;;;;;16.13;11.60;;;;;;;16.66;100.00;64720.19;5050205;28;20218;-54
2023/09/20 04:19:39;;;;;;;14.95;10.85;;;;;;;16.77;100.00;64732.28;5050450;28;20568;-51
2023/09/20 04:22:08;;;;;;;14.43;10.07;;;;;;;16.85;100.00;64738.00;5050644;28;20225;-51
2023/09/20 04:24:52;;;;;;;14.00;10.10;;;;;;;16.97;100.00;64751.22;5050159;28;20699;-52
2023/09/20 04:27:18;;;;;;;15.25;10.30;;;;;;;16.75;100.00;64727.53;5050289;28;20217;-52
2023/09/20 04:29:43;;;;;;;17.10;11.05;;;;;;;16.60;100.00;64711.56;5050140;28;20201;-50
2023/09/20 04:32:09;;;;;;;13.98;10.15;;;;;;;16.70;100.00;64725.13;5050233;28;20244;-51
2023/09/20 04:34:35;;;;;;;17.10;11.25;;;;;;;16.56;100.00;64707.16;5032482;28;20205;-51
2023/09/20 04:37:01;;;;;;;13.60;9.90;;;;;;;16.63;100.00;64716.88;5050497;28;20774;-50
2023/09/20 04:39:27;;;;;;;14.05;10.38;;;;;;;16.68;100.00;64722.91;5050265;28;20272;-54
2023/09/20 04:41:56;;;;;;;16.20;10.75;;;;;;;16.76;100.00;64726.66;5050240;28;20270;-51
2023/09/20 04:44:23;;;;;;;15.48;10.55;;;;;;;16.59;100.00;64707.94;5049862;28;20308;-51
2023/09/20 04:46:48;;;;;;;14.75;10.85;;;;;;;16.42;100.00;64694.28;5050224;28;20213;-52
2023/09/20 04:49:16;;;;;;;14.18;10.80;;;;;;;16.40;100.00;64692.06;5032114;28;20711;-51
2023/09/20 04:51:42;;;;;;;13.35;11.15;;;;;;;16.39;100.00;64688.44;5031958;28;20221;-52
2023/09/20 04:54:08;;;;;;;17.85;10.77;;;;;;;16.54;100.00;64704.94;5049859;28;20217;-52
2023/09/20 04:56:36;;;;;;;17.90;12.10;;;;;;;16.29;100.00;64677.41;5031746;28;20213;-53
2023/09/20 04:59:04;;;;;;;21.67;12.45;;;;;;;16.06;100.00;64654.63;5031956;28;20211;-51
2023/09/20 05:01:31;;;;;;;18.08;12.48;;;;;;;15.94;100.00;64641.44;5050091;28;20210;-57
2023/09/20 05:03:57;;;;;;;19.25;12.55;;;;;;;16.09;100.00;64652.88;5049863;28;20296;-54
2023/09/20 05:06:22;;;;;;;18.85;13.45;;;;;;;16.21;100.00;64668.63;5032257;28;20296;-52
2023/09/20 05:08:50;;;;;;;19.88;11.20;;;;;;;16.63;100.00;64714.88;5049835;28;20735;-52
2023/09/20 05:11:20;;;;;;;14.93;11.05;;;;;;;16.56;100.00;64707.16;5034513;28;20624;-53
2023/09/20 05:13:46;;;;;;;16.80;11.48;;;;;;;16.64;100.00;64718.50;5035394;28;20195;-53
2023/09/20 05:16:12;;;;;;;16.20;11.80;;;;;;;16.66;100.00;64718.16;5053033;28;20677;-51
2023/09/20 05:18:38;;;;;;;20.63;12.60;;;;;;;16.86;100.00;64736.56;5053209;28;20274;-53
2023/09/20 05:21:04;;;;;;;15.32;11.05;;;;;;;16.78;100.00;64733.94;5053386;28;20212;-51
2023/09/20 05:23:30;;;;;;;17.42;11.95;;;;;;;16.75;100.00;64725.53;5053090;28;20201;-52
2023/09/20 05:25:57;;;;;;;17.42;11.30;;;;;;;17.07;100.00;64762.25;5052902;28;20228;-51
2023/09/20 05:28:25;;;;;;;16.92;11.38;;;;;;;17.27;100.00;64787.34;5052987;28;20209;-53
2023/09/20 05:30:51;;;;;;;14.98;11.70;;;;;;;17.44;100.00;64803.56;5035315;28;20200;-51
2023/09/20 05:33:17;;;;;;;26.90;13.55;;;;;;;17.58;100.00;64821.00;5052504;28;20304;-51
2023/09/20 05:35:47;;;;;;;20.02;11.80;;;;;;;17.45;100.00;64804.09;5052892;28;20193;-51
2023/09/20 05:38:13;;;;;;;18.20;12.77;;;;;;;17.50;100.00;64809.63;5050720;28;20247;-50
2023/09/20 05:40:38;;;;;;;18.77;13.13;;;;;;;17.45;100.00;64804.09;5052873;28;20240;-52
2023/09/20 05:43:06;;;;;;;21.48;13.23;;;;;;;17.49;100.00;64808.53;5053041;28;20267;-52
2023/09/20 05:45:32;;;;;;;20.52;12.35;;;;;;;17.53;100.00;64812.94;5052568;28;20218;-52
2023/09/20 05:47:58;;;;;;;16.05;12.68;;;;;;;17.52;100.00;64811.84;5052503;28;20213;-54
2023/09/20 05:50:33;;;;;;;19.98;12.35;;;;;;;17.60;100.00;64821.19;5034865;28;20201;-52
2023/09/20 05:53:10;;;;;;;21.48;12.15;;;;;;;17.45;100.00;64804.09;5036268;28;20750;-52
2023/09/20 05:55:40;;;;;;;18.25;12.43;;;;;;;17.25;100.00;64779.53;5035422;28;20231;-52
2023/09/20 05:58:06;;;;;;;16.52;12.75;;;;;;;17.11;100.00;64766.66;5034842;28;20713;-55
2023/09/20 06:00:35;;;;;;;17.35;12.77;;;;;;;17.27;100.00;64781.72;5052605;28;20206;-52
2023/09/20 06:03:05;;;;;;;18.25;13.32;;;;;;;17.23;100.00;64780.41;5052434;28;20206;-53
2023/09/20 06:05:33;;;;;;;18.30;12.30;;;;;;;17.31;100.00;64791.75;5052631;28;20688;-52
2023/09/20 06:08:00;;;;;;;14.75;10.93;;;;;;;17.31;100.00;64791.22;5052460;28;20737;-52
2023/09/20 06:10:25;;;;;;;19.55;9.73;;;;;;;17.66;100.00;64827.25;5052438;28;20223;-55
2023/09/20 06:12:51;;;;;;;14.98;9.52;;;;;;;17.50;100.00;64807.09;5052248;28;20291;-55
2023/09/20 06:15:17;;;;;;;14.70;10.60;;;;;;;17.63;100.00;64823.97;5034547;28;20205;-51
2023/09/20 06:17:43;;;;;;;16.95;9.80;;;;;;;17.53;100.00;64813.47;5052626;28;20216;-52
2023/09/20 06:20:12;;;;;;;15.68;10.13;;;;;;;17.28;100.00;64785.38;5034516;28;20194;-52
2023/09/20 06:22:41;;;;;;;16.20;9.90;;;;;;;17.36;100.00;64794.19;5052082;28;20213;-52
2023/09/20 06:25:07;;;;;;;13.60;8.60;;;;;;;17.48;100.00;64805.41;5052090;28;20213;-52
2023/09/20 06:27:34;;;;;;;17.83;9.82;;;;;;;17.43;100.00;64802.44;5052651;28;20270;-52
2023/09/20 06:30:05;;;;;;;13.73;10.32;;;;;;;17.45;100.00;64804.09;5052113;28;20730;-51
2023/09/20 06:32:35;;;;;;;13.73;9.27;;;;;;;17.55;100.00;64817.69;5052596;28;20220;-50
2023/09/20 06:35:04;;;;;;;17.25;11.82;;;;;;;17.40;100.00;64799.16;5052110;28;20197;-52
2023/09/20 06:37:30;;;;;;;17.58;12.60;;;;;;;17.53;100.00;64813.47;5052184;28;20213;-52
2023/09/20 06:39:59;;;;;;;20.25;13.70;;;;;;;17.59;100.00;64820.09;5033804;28;20198;-51
2023/09/20 06:42:29;;;;;;;23.13;15.80;;;;;;;17.45;100.00;64804.09;5052092;28;20311;-51
2023/09/20 06:44:55;;;;;;;25.10;15.40;;;;;;;17.44;100.00;64803.56;5051725;28;20228;-55
2023/09/20 06:47:21;;;;;;;22.80;16.30;;;;;;;17.66;100.00;64824.16;5051307;28;20224;-53
2023/09/20 06:49:47;;;;;;;24.67;16.77;;;;;;;17.57;100.00;64819.91;5033770;28;20280;-53
2023/09/20 06:52:13;;;;;;;24.02;17.02;;;;;;;17.65;100.00;64825.63;5051738;28;20573;-52
2023/09/20 06:54:39;;;;;;;22.33;16.92;;;;;;;17.77;100.00;64834.28;5033505;28;20198;-52
2023/09/20 06:57:06;;;;;;;26.70;19.35;;;;;;;17.48;100.00;64809.94;5051503;28;20239;-52
2023/09/20 06:59:37;;;;;;;23.25;17.50;;;;;;;17.44;100.00;64806.09;5051489;28;20205;-52
2023/09/20 07:02:07;;;;;;;24.98;17.15;;;;;;;17.52;100.00;64814.94;5051820;28;20206;-50
2023/09/20 07:04:33;;;;;;;28.20;17.75;;;;;;;17.83;100.00;64846.00;5051402;28;20235;-51
2023/09/20 07:06:58;;;;;;;26.27;17.08;;;;;;;17.53;100.00;64813.47;5033320;28;20217;-52
2023/09/20 07:09:25;;;;;;;24.83;17.90;;;;;;;17.58;100.00;64821.00;5051492;28;20259;-52
2023/09/20 07:11:51;;;;;;;28.85;18.02;;;;;;;17.80;100.00;64842.13;5051568;28;20213;-57
2023/09/20 07:14:20;;;;;;;24.63;17.77;;;;;;;17.87;100.00;64852.41;5033287;28;20224;-53
2023/09/20 07:16:51;;;;;;;25.10;18.23;;;;;;;17.78;100.00;64840.50;5051454;28;20224;-51
2023/09/20 07:19:23;;;;;;;25.00;16.88;;;;;;;17.81;100.00;64843.81;5051317;28;20224;-51
2023/09/20 07:21:50;;;;;;;31.90;20.08;;;;;;;17.96;100.00;64860.34;5033905;28;20210;-52
2023/09/20 07:24:16;;;;;;;23.80;18.25;;;;;;;18.09;100.00;64877.22;5033119;28;20197;-57
2023/09/20 07:26:46;;;;;;;23.42;17.52;;;;;;;18.40;100.00;64906.28;5033422;28;20209;-53
2023/09/20 07:29:15;;;;;;;28.55;18.30;;;;;;;18.46;100.00;64914.41;5017151;28;20202;-53
2023/09/20 07:31:42;;;;;;;24.27;18.05;;;;;;;18.36;100.00;64903.91;5051140;28;20249;-52
2023/09/20 07:34:10;;;;;;;26.60;18.10;;;;;;;18.35;100.00;64905.91;5050541;28;20212;-52
2023/09/20 07:36:40;;;;;;;31.75;21.85;;;;;;;18.53;100.00;64919.56;5051221;28;20221;-51
2023/09/20 07:39:12;;;;;;;31.52;20.80;;;;;;;18.39;100.00;64907.75;5050991;28;20335;-51
2023/09/20 07:41:50;;;;;;;31.95;20.80;;;;;;;18.31;100.00;64901.50;5051155;28;20212;-52
2023/09/20 07:44:17;;;;;;;28.15;19.27;;;;;;;18.68;100.00;64941.22;5032908;28;20209;-52
2023/09/20 07:46:44;;;;;;;27.90;20.58;;;;;;;18.50;100.00;64916.81;5050914;28;20220;-52
2023/09/20 07:49:10;;;;;;;24.67;17.63;;;;;;;18.77;100.00;64948.59;5051013;28;20783;-51
2023/09/20 07:51:37;;;;;;;25.55;18.38;;;;;;;18.83;100.00;64955.75;5050940;28;20274;-52
2023/09/20 07:54:10;;;;;;;25.17;18.50;;;;;;;19.03;100.00;64977.81;5032714;28;20284;-52
2023/09/20 07:56:37;;;;;;;24.05;17.85;;;;;;;18.99;100.00;64973.41;5050937;28;20271;-58
2023/09/20 07:59:06;;;;;;;24.85;19.60;;;;;;;18.95;100.00;64969.00;5032688;28;20197;-53
2023/09/20 08:01:32;;;;;;;26.58;16.67;;;;;;;18.99;100.00;64970.31;5050572;28;20220;-52
2023/09/20 08:04:00;;;;;;;27.33;17.65;;;;;;;18.70;100.00;64940.88;5050620;28;20193;-54
2023/09/20 08:06:35;;;;;;;23.75;18.20;;;;;;;18.78;100.00;64949.69;5050567;28;20239;-53
2023/09/20 08:09:05;;;;;;;25.15;16.90;;;;;;;19.11;100.00;64986.09;5050396;28;20246;-51
2023/09/20 08:11:33;;;;;;;27.17;17.38;;;;;;;19.53;100.00;65032.50;5050774;28;20213;-52
2023/09/20 08:14:01;;;;;;;23.20;17.85;;;;;;;19.78;100.00;65057.00;5050833;28;20201;-53
2023/09/20 08:16:31;;;;;;;31.48;20.65;;;;;;;19.74;100.00;65055.69;5050410;28;20696;-54
2023/09/20 08:19:16;;;;;;;21.55;17.40;;;;;;;20.07;100.00;65092.16;5032506;28;20278;-53
2023/09/20 08:21:43;;;;;;;28.50;20.15;;;;;;;20.49;100.00;65134.91;5050266;28;20205;-52
2023/09/20 09:00:39;;;;;;;21.92;16.08;;;;;;;24.00;99.53;65521.81;5053512;28;20263;-51
2023/09/20 09:03:05;;;;;;;20.35;16.10;;;;;;;24.24;98.00;65547.88;5053037;28;20205;-52
2023/09/20 09:05:32;;;;;;;26.42;19.13;;;;;;;24.39;96.33;65564.53;5053032;28;20209;-51
2023/09/20 09:08:00;;;;;;;22.35;16.60;;;;;;;24.63;90.45;65593.72;5053203;28;20213;-51
2023/09/20 09:10:27;;;;;;;18.95;15.23;;;;;;;24.80;89.99;65612.63;5053344;28;20250;-52
2023/09/20 09:12:53;;;;;;;21.45;15.57;;;;;;;24.73;92.26;65602.25;5053238;28;20214;-52
2023/09/20 09:15:23;;;;;;;20.85;15.95;;;;;;;24.68;88.31;65594.13;5035414;28;20208;-51
2023/09/20 09:17:48;;;;;;;21.23;15.52;;;;;;;24.89;90.35;65620.00;5053407;28;20209;-51
2023/09/20 09:20:21;;;;;;;19.98;15.65;;;;;;;24.90;92.31;65618.56;5053137;28;20580;-50
2023/09/20 09:22:48;;;;;;;17.05;14.25;;;;;;;25.46;89.61;65682.19;5052669;28;20224;-51
2023/09/20 09:25:19;;;;;;;20.85;14.18;;;;;;;25.77;83.18;65717.16;5052820;28;20308;-52
2023/09/20 09:27:45;;;;;;;23.55;17.33;;;;;;;25.18;82.48;65651.66;5053154;28;20213;-51
2023/09/20 09:30:14;;;;;;;18.77;15.45;;;;;;;25.36;85.89;65673.63;5052680;28;20162;-55
2023/09/20 09:32:42;;;;;;;19.77;16.75;;;;;;;25.06;83.86;65635.19;5052877;28;20214;-51
2023/09/20 09:35:09;;;;;;;26.23;18.63;;;;;;;25.20;81.91;65653.31;5034689;28;20194;-51
2023/09/20 09:37:37;;;;;;;17.90;15.40;;;;;;;25.54;80.99;65691.06;5034743;28;20217;-51
2023/09/20 09:40:05;;;;;;;17.67;14.25;;;;;;;26.11;79.91;65748.66;5052661;28;20197;-50
2023/09/20 09:42:33;;;;;;;26.35;20.10;;;;;;;26.64;78.56;65813.25;5034341;28;20707;-51
2023/09/20 09:45:01;;;;;;;27.83;19.70;;;;;;;26.59;77.93;65810.28;5052421;28;20209;-52
2023/09/20 09:47:29;;;;;;;23.08;18.95;;;;;;;26.13;76.96;65754.03;5052190;28;20218;-50
2023/09/20 09:49:58;;;;;;;23.02;16.75;;;;;;;24.57;84.17;65581.91;5051854;28;20204;-50
2023/09/20 09:52:26;;;;;;;20.58;15.70;;;;;;;25.18;80.83;65653.66;5051981;28;20235;-51
2023/09/20 09:54:58;;;;;;;23.73;16.33;;;;;;;25.42;79.83;65673.13;5050639;28;20663;-50
2023/09/20 09:57:24;;;;;;;16.95;13.90;;;;;;;26.15;77.73;65758.81;5051253;28;20217;-51
2023/09/20 09:59:51;;;;;;;18.92;12.40;;;;;;;26.10;75.21;65752.72;5052027;28;20208;-51
2023/09/20 10:02:19;;;;;;;14.23;11.48;;;;;;;27.05;70.76;65858.28;5051632;28;20256;-50
2023/09/20 10:05:03;;;;;;;16.85;12.07;;;;;;;27.57;68.45;65915.00;5049773;28;20213;-53
2023/09/20 10:07:31;;;;;;;16.42;11.35;;;;;;;26.73;65.32;65817.53;5050424;28;20695;-51
2023/09/20 10:10:13;;;;;;;18.33;10.80;;;;;;;26.22;67.52;65769.16;5051873;28;20186;-51
2023/09/20 10:12:44;;;;;;;14.23;10.95;;;;;;;26.58;67.17;65806.59;5051885;28;20304;-51
2023/09/20 10:15:11;;;;;;;13.63;10.65;;;;;;;26.40;65.89;65786.03;5051650;28;20170;-52
2023/09/20 10:17:56;;;;;;;14.35;10.93;;;;;;;26.65;68.87;65808.63;5033638;28;20231;-52
2023/09/20 10:20:25;;;;;;;14.65;11.27;;;;;;;26.75;67.67;65822.34;5033808;28;20212;-52
2023/09/20 10:22:54;;;;;;;14.00;8.90;;;;;;;26.50;75.95;65795.09;5051502;28;20275;-53
2023/09/20 10:25:49;;;;;;;12.15;10.13;;;;;;;25.98;70.91;65736.78;5051545;28;20210;-54
2023/09/20 10:28:17;;;;;;;14.77;10.30;;;;;;;25.61;73.99;65698.84;5031888;28;20245;-54
2023/09/20 10:31:12;;;;;;;13.85;10.85;;;;;;;25.59;76.93;65697.16;5051398;28;20209;-55
2023/09/20 10:33:45;;;;;;;15.52;10.30;;;;;;;25.20;79.95;65653.31;5051798;28;20213;-53
2023/09/20 10:36:20;;;;;;;12.63;10.25;;;;;;;25.41;72.98;65677.19;5051791;28;20199;-55
2023/09/20 10:38:47;;;;;;;17.23;9.60;;;;;;;25.69;71.77;65710.84;5051266;28;20254;-56
2023/09/20 10:41:16;;;;;;;14.90;9.80;;;;;;;25.95;76.23;65734.00;5033564;28;20200;-58
2023/09/20 10:43:46;;;;;;;26.27;20.48;;;;;;;26.02;76.68;65744.34;5033560;28;20213;-55
2023/09/20 10:46:22;;;;;;;14.98;10.65;;;;;;;25.51;72.58;65687.75;5051477;28;20213;-52
2023/09/20 10:48:50;;;;;;;11.52;8.45;;;;;;;25.62;74.13;65697.34;5050906;28;20212;-53
2023/09/20 10:51:42;;;;;;;14.75;9.93;;;;;;;26.22;75.47;65763.47;5033402;28;20296;-54
2023/09/20 10:54:19;;;;;;;13.05;9.38;;;;;;;26.03;72.11;65742.88;5033283;28;20243;-55
2023/09/20 10:56:51;;;;;;;13.25;7.85;;;;;;;26.58;72.70;65806.03;5051405;28;20243;-54
2023/09/20 10:59:18;;;;;;;23.73;16.67;;;;;;;26.57;68.15;65805.47;5051373;28;20193;-53
2023/09/20 11:02:16;;;;;;;20.95;11.90;;;;;;;26.30;62.97;65775.47;5033199;28;20221;-53
2023/09/20 11:04:46;;;;;;;13.55;8.60;;;;;;;26.34;62.62;65779.91;5051189;28;20196;-53
2023/09/20 11:07:12;;;;;;;10.57;6.00;;;;;;;26.22;62.03;65760.88;5032440;28;20278;-52
2023/09/20 11:09:38;;;;;;;6.43;5.60;;;;;;;26.25;63.30;65769.94;5050832;28;20280;-54
2023/09/20 11:12:08;;;;;;;13.23;10.20;;;;;;;26.36;63.76;65779.00;5033198;28;20240;-53
2023/09/20 11:14:41;;;;;;;7.18;5.50;;;;;;;26.43;59.21;65787.34;5032915;28;20357;-52
2023/09/20 11:17:12;;;;;;;11.65;8.45;;;;;;;26.74;59.50;65820.69;5050959;28;20327;-53
2023/09/20 11:19:38;;;;;;;7.78;5.82;;;;;;;27.17;61.94;65871.09;5050864;28;20303;-55
2023/09/20 11:22:05;;;;;;;6.43;5.20;;;;;;;27.41;63.36;65893.16;5050606;28;20206;-53
2023/09/20 11:24:32;;;;;;;10.13;7.63;;;;;;;26.86;57.96;65837.19;5050642;28;20271;-53
2023/09/20 11:26:58;;;;;;;6.25;4.75;;;;;;;26.64;56.53;65807.53;5050222;28;20216;-54
2023/09/20 11:29:25;;;;;;;10.30;5.93;;;;;;;26.64;54.25;65810.13;5032553;28;20181;-53
2023/09/20 11:31:58;;;;;;;6.03;3.80;;;;;;;27.12;57.38;65866.06;5050350;28;20220;-53
2023/09/20 11:34:25;;;;;;;7.43;5.15;;;;;;;27.34;56.59;65887.41;5050447;28;20230;-53
2023/09/20 11:36:55;;;;;;;5.85;4.22;;;;;;;27.59;52.60;65915.22;5050398;28;20224;-54
2023/09/20 11:39:30;;;;;;;9.27;4.18;;;;;;;27.77;54.75;65935.22;5050491;28;20208;-52
2023/09/20 11:42:04;;;;;;;7.30;4.93;;;;;;;28.00;55.48;65960.81;5050626;28;20706;-53
2023/09/20 11:44:35;;;;;;;7.72;4.80;;;;;;;27.50;54.60;65902.03;5050279;28;20659;-54
2023/09/20 11:47:01;;;;;;;7.88;3.47;;;;;;;27.72;50.27;65927.06;5050638;28;20210;-53
2023/09/20 11:49:29;;;;;;;8.10;5.05;;;;;;;27.74;50.45;65931.88;5050131;28;20273;-53
2023/09/20 11:51:57;;;;;;;6.65;4.10;;;;;;;27.80;50.99;65938.00;5050365;28;20213;-54
2023/09/20 11:54:34;;;;;;;8.45;4.68;;;;;;;28.00;48.76;65960.81;5032564;28;20205;-54
2023/09/20 11:57:03;;;;;;;10.10;4.43;;;;;;;27.50;50.57;65904.63;5050375;28;20209;-53
2023/09/20 11:59:29;;;;;;;5.30;4.32;;;;;;;27.29;49.29;65884.97;5050210;28;20202;-52